createdAt,value
2022-11-30T00:01:30.620Z,14.03
2022-11-30T00:03:58.492Z,12.13
2022-11-30T00:06:26.085Z,13.60
2022-11-30T00:08:58.327Z,14.73
2022-11-30T00:11:28.843Z,14.43
2022-11-30T00:13:56.835Z,14.53
2022-11-30T00:16:24.401Z,12.53
2022-11-30T00:18:52.098Z,13.63
2022-11-30T00:21:20.165Z,12.50
2022-11-30T00:23:48.616Z,13.83
2022-11-30T00:26:18.835Z,12.07
2022-11-30T00:28:47.556Z,13.33
2022-11-30T00:31:18.111Z,13.13
2022-11-30T00:33:46.228Z,15.33
2022-11-30T00:36:22.727Z,16.80
2022-11-30T00:38:52.733Z,16.17
2022-11-30T00:41:21.239Z,24.83
2022-11-30T00:43:49.105Z,18.73
2022-11-30T00:46:16.779Z,16.90
2022-11-30T00:48:44.443Z,16.67
2022-11-30T00:51:12.986Z,13.83
2022-11-30T00:53:41.580Z,15.33
2022-11-30T00:56:10.394Z,13.63
2022-11-30T00:58:37.861Z,13.77
2022-11-30T01:01:06.730Z,15.37
2022-11-30T01:03:35.064Z,14.50
2022-11-30T01:06:08.482Z,16.57
2022-11-30T01:08:36.587Z,14.67
2022-11-30T01:11:24.130Z,15.60
2022-11-30T01:13:52.938Z,14.07
2022-11-30T01:16:31.467Z,15.07
2022-11-30T01:18:59.293Z,13.80
2022-11-30T01:21:29.278Z,13.07
2022-11-30T01:23:57.380Z,14.73
2022-11-30T01:26:26.001Z,11.97
2022-11-30T01:28:55.554Z,13.03
2022-11-30T01:31:25.241Z,12.33
2022-11-30T01:33:55.351Z,13.00
2022-11-30T01:36:27.456Z,13.57
2022-11-30T01:38:57.708Z,12.87
2022-11-30T01:41:31.542Z,13.27
2022-11-30T01:44:20.316Z,14.10
2022-11-30T01:46:59.864Z,10.50
2022-11-30T01:49:42.658Z,13.50
2022-11-30T01:52:14.790Z,11.93
2022-11-30T01:54:52.192Z,11.43
2022-11-30T01:57:31.005Z,10.73
2022-11-30T02:00:02.332Z,13.03
2022-11-30T02:03:03.388Z,12.87
2022-11-30T02:05:34.954Z,13.70
2022-11-30T02:08:02.864Z,12.07
2022-11-30T02:10:34.987Z,11.53
2022-11-30T02:13:39.937Z,11.80
2022-11-30T02:16:18.865Z,10.67
2022-11-30T02:19:11.871Z,12.40
2022-11-30T02:22:34.151Z,10.80
2022-11-30T02:25:33.203Z,11.27
2022-11-30T02:28:59.634Z,9.60
2022-11-30T02:31:43.783Z,10.03
2022-11-30T02:34:15.984Z,9.40
2022-11-30T02:36:46.547Z,11.13
2022-11-30T02:39:14.117Z,9.53
2022-11-30T02:41:42.326Z,10.43
2022-11-30T02:44:12.250Z,11.17
2022-11-30T02:46:53.378Z,9.87
2022-11-30T02:49:34.396Z,12.77
2022-11-30T02:52:03.436Z,11.60
2022-11-30T02:54:30.946Z,10.33
2022-11-30T02:56:58.853Z,12.73
2022-11-30T02:59:26.443Z,12.60
2022-11-30T03:01:53.953Z,12.13
2022-11-30T03:04:22.770Z,13.23
2022-11-30T03:06:50.370Z,12.10
2022-11-30T03:09:18.005Z,13.60
2022-11-30T03:11:45.588Z,11.87
2022-11-30T03:14:13.299Z,11.73
2022-11-30T03:16:40.987Z,10.40
2022-11-30T03:19:08.650Z,10.87
2022-11-30T03:21:36.273Z,10.93
2022-11-30T03:24:03.890Z,13.97
2022-11-30T03:26:31.673Z,11.17
2022-11-30T03:28:59.176Z,10.67
2022-11-30T03:31:26.770Z,10.53
2022-11-30T03:33:54.440Z,11.40
2022-11-30T03:36:21.919Z,11.20
2022-11-30T03:38:49.495Z,12.63
2022-11-30T03:41:18.928Z,13.47
2022-11-30T03:43:47.611Z,12.87
2022-11-30T03:46:15.528Z,14.10
2022-11-30T03:48:45.153Z,13.70
2022-11-30T03:51:14.256Z,13.87
2022-11-30T03:53:42.473Z,13.20
2022-11-30T03:56:11.431Z,11.03
2022-11-30T03:58:39.732Z,12.03
2022-11-30T04:01:13.704Z,14.47
2022-11-30T04:03:42.413Z,18.00
2022-11-30T04:06:12.318Z,17.07
2022-11-30T04:08:40.592Z,21.17
2022-11-30T04:11:09.819Z,15.03
2022-11-30T04:13:39.064Z,16.90
2022-11-30T04:16:07.932Z,12.80
2022-11-30T04:18:37.726Z,14.20
2022-11-30T04:21:07.358Z,11.50
2022-11-30T04:23:40.581Z,11.20
2022-11-30T04:26:12.722Z,11.70
2022-11-30T04:28:40.894Z,11.10
2022-11-30T04:31:09.494Z,13.37
2022-11-30T04:33:37.440Z,12.10
2022-11-30T04:36:07.227Z,12.83
2022-11-30T04:38:36.159Z,11.43
2022-11-30T04:41:08.913Z,10.30
2022-11-30T04:43:37.082Z,10.03
2022-11-30T04:46:06.265Z,11.87
2022-11-30T04:48:34.251Z,15.93
2022-11-30T04:51:06.149Z,16.03
2022-11-30T04:53:35.996Z,14.90
2022-11-30T04:56:08.857Z,17.07
2022-11-30T04:58:37.033Z,17.03
2022-11-30T05:01:04.586Z,28.80
2022-11-30T05:03:32.064Z,25.57
2022-11-30T05:05:59.590Z,27.47
2022-11-30T05:08:27.166Z,20.67
2022-11-30T05:10:57.553Z,24.50
2022-11-30T05:13:26.417Z,25.07
2022-11-30T05:15:54.312Z,30.23
2022-11-30T05:18:22.305Z,31.73
2022-11-30T05:20:51.789Z,34.47
2022-11-30T05:23:20.548Z,31.97
2022-11-30T05:25:48.854Z,32.60
2022-11-30T05:28:17.340Z,34.93
2022-11-30T05:30:45.433Z,31.53
2022-11-30T05:33:13.335Z,21.63
2022-11-30T05:35:41.072Z,22.63
2022-11-30T05:38:08.574Z,21.63
2022-11-30T05:40:36.665Z,20.80
2022-11-30T05:43:06.088Z,24.60
2022-11-30T05:45:33.710Z,42.07
2022-11-30T05:48:01.185Z,36.97
2022-11-30T05:50:28.959Z,45.07
2022-11-30T05:52:56.976Z,57.17
2022-11-30T05:55:26.224Z,62.00
2022-11-30T05:57:54.205Z,45.23
2022-11-30T06:00:22.687Z,35.87
2022-11-30T06:02:56.899Z,37.07
2022-11-30T06:05:25.263Z,30.47
2022-11-30T06:07:52.935Z,27.70
2022-11-30T06:10:20.871Z,35.07
2022-11-30T06:12:48.960Z,29.23
2022-11-30T06:15:16.579Z,29.10
2022-11-30T06:17:44.072Z,31.33
2022-11-30T06:20:12.095Z,22.53
2022-11-30T06:22:39.576Z,18.57
2022-11-30T06:25:07.373Z,15.90
2022-11-30T06:27:34.904Z,14.60
2022-11-30T06:30:04.092Z,16.40
2022-11-30T06:32:31.655Z,21.03
2022-11-30T06:37:40.805Z,18.43
2022-11-30T06:40:11.197Z,24.87
2022-11-30T06:42:41.682Z,25.57
2022-11-30T06:45:10.625Z,25.47
2022-11-30T06:47:38.318Z,26.53
2022-11-30T06:50:08.273Z,36.57
2022-11-30T06:52:35.963Z,30.80
2022-11-30T06:55:03.904Z,41.50
2022-11-30T06:57:32.192Z,25.67
2022-11-30T06:59:59.698Z,21.93
2022-11-30T07:02:27.259Z,20.83
2022-11-30T07:04:54.962Z,28.17
2022-11-30T07:07:22.661Z,22.13
2022-11-30T07:09:52.143Z,16.67
2022-11-30T07:12:19.698Z,23.40
2022-11-30T07:14:47.614Z,16.23
2022-11-30T07:17:15.285Z,13.87
2022-11-30T07:19:42.846Z,14.47
2022-11-30T07:22:10.448Z,19.87
2022-11-30T07:24:56.682Z,32.37
2022-11-30T07:27:24.425Z,31.30
2022-11-30T07:29:52.644Z,18.13
2022-11-30T07:32:20.700Z,16.90
2022-11-30T07:34:48.675Z,15.47
2022-11-30T07:37:16.301Z,21.53
2022-11-30T07:39:47.373Z,20.50
2022-11-30T07:42:14.997Z,12.23
2022-11-30T07:44:42.885Z,9.33
2022-11-30T07:47:10.632Z,9.67
2022-11-30T07:49:39.874Z,11.53
2022-11-30T07:52:08.346Z,11.43
2022-11-30T07:54:36.031Z,10.10
2022-11-30T07:57:03.611Z,9.90
2022-11-30T07:59:31.148Z,18.20
2022-11-30T08:01:58.835Z,18.43
2022-11-30T08:04:26.650Z,25.53
2022-11-30T08:06:55.412Z,35.23
2022-11-30T08:09:23.019Z,21.93
2022-11-30T08:11:50.705Z,15.63
2022-11-30T08:14:18.262Z,11.80
2022-11-30T08:16:45.886Z,14.50
2022-11-30T08:19:13.452Z,11.80
2022-11-30T08:21:41.044Z,7.80
2022-11-30T08:24:14.028Z,8.53
2022-11-30T08:26:41.941Z,9.53
2022-11-30T08:29:14.113Z,6.33
2022-11-30T08:31:41.745Z,4.67
2022-11-30T08:34:13.406Z,3.87
2022-11-30T08:36:47.274Z,4.60
2022-11-30T08:39:19.577Z,3.60
2022-11-30T08:41:47.534Z,6.63
2022-11-30T08:44:16.624Z,5.27
2022-11-30T08:46:52.411Z,3.40
2022-11-30T08:49:23.002Z,4.53
2022-11-30T08:57:34.406Z,4.73
2022-11-30T09:00:02.077Z,5.67
2022-11-30T09:02:29.580Z,6.23
2022-11-30T09:04:57.176Z,3.93
2022-11-30T09:07:24.648Z,3.73
2022-11-30T09:09:52.131Z,3.93
2022-11-30T09:12:19.731Z,3.33
2022-11-30T09:14:55.639Z,3.73
2022-11-30T09:17:25.151Z,5.33
2022-11-30T09:19:52.791Z,4.23
2022-11-30T09:22:20.325Z,5.03
2022-11-30T09:24:48.073Z,3.70
2022-11-30T09:27:15.772Z,3.97
2022-11-30T09:29:43.285Z,4.10
2022-11-30T09:32:10.834Z,3.50
2022-11-30T09:34:38.477Z,3.33
2022-11-30T09:37:06.272Z,3.10
2022-11-30T09:39:36.950Z,3.20
2022-11-30T09:42:25.808Z,3.47
2022-11-30T09:45:08.412Z,5.10
2022-11-30T09:47:59.944Z,3.27
2022-11-30T09:50:33.870Z,3.00
2022-11-30T09:53:29.704Z,3.23
2022-11-30T09:55:59.094Z,3.60
2022-11-30T09:58:55.464Z,4.30
2022-11-30T10:01:23.716Z,6.00
2022-11-30T10:03:51.436Z,3.73
2022-11-30T10:06:26.992Z,5.10
2022-11-30T10:09:26.146Z,2.73
2022-11-30T10:12:24.494Z,2.87
2022-11-30T10:15:32.204Z,2.63
2022-11-30T10:18:08.769Z,3.83
2022-11-30T10:20:59.065Z,5.83
2022-11-30T10:23:43.489Z,3.03
2022-11-30T10:26:16.598Z,4.10
2022-11-30T10:28:54.284Z,2.67
2022-11-30T10:31:39.291Z,4.80
2022-11-30T10:34:21.355Z,2.93
2022-11-30T10:36:55.753Z,5.47
2022-11-30T10:39:33.649Z,2.00
2022-11-30T10:42:13.132Z,2.10
2022-11-30T10:44:49.817Z,2.90
2022-11-30T10:47:24.123Z,4.83
2022-11-30T10:49:53.364Z,2.30
2022-11-30T10:52:31.125Z,2.73
2022-11-30T10:55:04.579Z,1.90
2022-11-30T10:57:33.970Z,2.10
2022-11-30T11:00:06.930Z,2.87
2022-11-30T11:02:46.010Z,2.50
2022-11-30T11:05:25.430Z,3.10
2022-11-30T11:08:06.345Z,6.17
2022-11-30T11:10:47.803Z,4.87
2022-11-30T11:13:42.644Z,4.20
2022-11-30T11:16:14.310Z,5.17
2022-11-30T11:18:57.506Z,6.37
2022-11-30T11:21:25.805Z,5.10
2022-11-30T11:23:58.492Z,8.37
2022-11-30T11:26:31.769Z,9.13
2022-11-30T11:28:59.903Z,10.80
2022-11-30T11:31:47.431Z,8.80
2022-11-30T11:34:34.780Z,7.60
2022-11-30T11:37:18.025Z,4.93
2022-11-30T11:40:16.215Z,4.73
2022-11-30T11:42:47.692Z,4.30
2022-11-30T11:45:26.066Z,5.07
2022-11-30T11:48:08.256Z,6.43
2022-11-30T11:53:54.313Z,5.50
2022-11-30T11:56:27.986Z,8.27
2022-11-30T11:59:13.046Z,5.80
2022-11-30T12:02:18.881Z,6.03
2022-11-30T12:04:53.044Z,6.83
2022-11-30T12:08:07.650Z,7.27
2022-11-30T12:10:53.029Z,4.87
2022-11-30T12:13:26.595Z,7.30
2022-11-30T12:16:12.332Z,5.07
2022-11-30T12:19:08.804Z,4.43
2022-11-30T12:22:15.718Z,4.40
2022-11-30T12:25:06.191Z,5.07
2022-11-30T12:27:55.407Z,4.60
2022-11-30T12:31:15.465Z,5.33
2022-11-30T12:34:17.343Z,5.30
2022-11-30T12:37:05.276Z,4.67
2022-11-30T12:39:44.407Z,2.93
2022-11-30T12:42:22.287Z,3.07
2022-11-30T12:45:28.757Z,2.47
2022-11-30T12:48:34.981Z,2.97
2022-11-30T12:51:17.551Z,2.67
2022-11-30T12:54:41.715Z,2.83
2022-11-30T12:57:35.209Z,2.53
2022-11-30T13:00:17.922Z,7.83
2022-11-30T13:03:16.695Z,5.80
2022-11-30T13:05:51.629Z,5.23
2022-11-30T13:08:34.444Z,4.87
2022-11-30T13:11:18.197Z,4.73
2022-11-30T13:13:57.415Z,4.43
2022-11-30T13:16:28.952Z,5.43
2022-11-30T13:19:38.096Z,20.43
2022-11-30T13:22:17.581Z,109.60
2022-11-30T13:25:07.442Z,7.87
2022-11-30T13:27:47.626Z,9.73
2022-11-30T13:30:21.364Z,4.03
2022-11-30T13:32:57.788Z,7.23
2022-11-30T13:35:29.177Z,6.47
2022-11-30T13:38:36.827Z,5.43
2022-11-30T13:41:10.476Z,4.67
2022-11-30T13:43:47.825Z,5.27
2022-11-30T13:46:23.845Z,6.13
2022-11-30T13:49:20.898Z,5.87
2022-11-30T13:52:07.073Z,5.77
2022-11-30T13:54:50.309Z,6.23
2022-11-30T13:57:25.301Z,6.10
2022-11-30T13:59:58.195Z,6.17
2022-11-30T14:05:37.875Z,5.50
2022-11-30T14:08:12.055Z,5.50
2022-11-30T14:10:46.495Z,5.40
2022-11-30T14:13:16.179Z,5.63
2022-11-30T14:15:43.688Z,4.60
2022-11-30T14:18:11.128Z,4.23
2022-11-30T14:20:48.830Z,3.83
2022-11-30T14:23:29.794Z,4.60
2022-11-30T14:26:11.510Z,4.40
2022-11-30T14:28:58.814Z,6.70
2022-11-30T14:31:31.039Z,4.73
2022-11-30T14:34:29.910Z,40.67
2022-11-30T14:37:04.193Z,18.97
2022-11-30T14:39:42.083Z,30.23
2022-11-30T14:42:28.513Z,12.77
2022-11-30T14:44:57.406Z,5.30
2022-11-30T14:47:32.138Z,4.90
2022-11-30T14:50:04.345Z,6.43
2022-11-30T14:52:59.132Z,4.67
2022-11-30T14:55:53.512Z,6.27
2022-11-30T14:58:51.767Z,5.33
2022-11-30T15:01:26.615Z,4.97
2022-11-30T15:04:00.835Z,5.90
2022-11-30T15:06:33.219Z,5.10
2022-11-30T15:09:05.859Z,7.13
2022-11-30T15:11:33.430Z,7.20
2022-11-30T15:14:11.579Z,6.50
2022-11-30T15:16:48.083Z,14.43
2022-11-30T15:19:37.478Z,9.30
2022-11-30T15:22:06.519Z,6.37
2022-11-30T15:24:34.084Z,7.50
2022-11-30T15:27:11.224Z,9.70
2022-11-30T15:29:45.702Z,7.23
2022-11-30T15:32:19.874Z,7.10
2022-11-30T15:34:56.752Z,7.70
2022-11-30T15:37:38.761Z,8.17
2022-11-30T15:40:09.149Z,7.63
2022-11-30T15:42:40.497Z,8.00
2022-11-30T15:45:30.187Z,8.00
2022-11-30T15:48:02.407Z,10.03
2022-11-30T15:50:29.953Z,8.90
2022-11-30T15:53:35.024Z,11.00
2022-11-30T15:56:08.137Z,11.93
2022-11-30T15:58:46.109Z,11.23
2022-11-30T16:01:26.004Z,9.10
2022-11-30T16:03:58.179Z,9.00
2022-11-30T16:06:27.856Z,14.80
2022-11-30T16:08:56.290Z,31.00
2022-11-30T16:11:23.901Z,101.57
2022-11-30T16:13:51.467Z,223.67
2022-11-30T16:16:28.493Z,129.43
2022-11-30T16:18:56.234Z,22.17
2022-11-30T16:21:23.847Z,10.77
2022-11-30T16:23:51.367Z,10.47
2022-11-30T16:26:49.592Z,7.90
2022-11-30T16:29:10.422Z,9.43
2022-11-30T16:31:38.816Z,9.13
2022-11-30T16:34:08.791Z,8.73
2022-11-30T16:36:39.021Z,8.53
2022-11-30T16:39:06.882Z,10.90
2022-11-30T16:41:36.213Z,8.77
2022-11-30T16:44:03.787Z,9.53
2022-11-30T16:46:31.863Z,9.03
2022-11-30T16:48:59.466Z,11.30
2022-11-30T16:51:35.117Z,11.07
2022-11-30T16:54:03.560Z,8.20
2022-11-30T16:56:32.542Z,8.03
2022-11-30T16:59:00.325Z,9.80
2022-11-30T17:01:48.643Z,9.90
2022-11-30T17:04:22.907Z,10.67
2022-11-30T17:06:53.651Z,7.80
2022-11-30T17:09:25.014Z,11.30
2022-11-30T17:11:54.151Z,10.20
2022-11-30T17:14:22.444Z,8.67
2022-11-30T17:16:50.118Z,7.97
2022-11-30T17:19:17.756Z,6.20
2022-11-30T17:21:45.934Z,7.03
2022-11-30T17:24:15.921Z,6.17
2022-11-30T17:26:43.766Z,7.10
2022-11-30T17:29:11.320Z,5.63
2022-11-30T17:31:38.995Z,5.20
2022-11-30T17:34:12.352Z,5.63
2022-11-30T17:36:39.988Z,6.20
2022-11-30T17:39:09.048Z,5.70
2022-11-30T17:41:56.665Z,4.47
2022-11-30T17:44:30.565Z,4.57
2022-11-30T17:46:58.759Z,5.73
2022-11-30T17:49:27.765Z,4.80
2022-11-30T17:52:19.869Z,3.50
2022-11-30T17:54:48.114Z,4.03
2022-11-30T17:57:16.431Z,5.90
2022-11-30T17:59:44.111Z,5.03
2022-11-30T18:02:14.302Z,5.17
2022-11-30T18:04:53.189Z,6.10
2022-11-30T18:07:25.505Z,5.50
2022-11-30T18:09:53.289Z,5.50
2022-11-30T18:12:22.287Z,6.80
2022-11-30T18:14:51.138Z,5.20
2022-11-30T18:17:18.873Z,4.23
2022-11-30T18:19:52.747Z,4.17
2022-11-30T18:22:20.848Z,3.77
2022-11-30T18:24:48.672Z,3.30
2022-11-30T18:27:17.817Z,3.93
2022-11-30T18:29:51.355Z,3.40
2022-11-30T18:32:23.730Z,4.63
2022-11-30T18:34:52.897Z,3.20
2022-11-30T18:37:20.599Z,2.80
2022-11-30T18:39:51.382Z,3.47
2022-11-30T18:42:20.671Z,2.63
2022-11-30T18:44:50.715Z,3.03
2022-11-30T18:47:20.970Z,4.57
2022-11-30T18:49:49.784Z,3.37
2022-11-30T18:52:22.344Z,4.33
2022-11-30T18:54:50.782Z,5.03
2022-11-30T18:57:22.824Z,3.07
2022-11-30T18:59:53.867Z,4.63
2022-11-30T19:02:22.720Z,4.17
2022-11-30T19:04:54.035Z,3.57
2022-11-30T19:07:22.977Z,2.70
2022-11-30T19:09:52.291Z,4.23
2022-11-30T19:12:24.400Z,4.43
2022-11-30T19:14:52.589Z,4.27
2022-11-30T19:17:23.750Z,3.43
2022-11-30T19:19:51.565Z,5.37
2022-11-30T19:22:22.682Z,3.17
2022-11-30T19:24:51.353Z,4.10
2022-11-30T19:27:22.240Z,3.33
2022-11-30T19:29:50.088Z,6.83
2022-11-30T19:32:17.951Z,2.93
2022-11-30T19:34:45.773Z,4.07
2022-11-30T19:37:15.325Z,2.90
2022-11-30T19:39:43.411Z,3.23
2022-11-30T19:42:11.570Z,2.57
2022-11-30T19:44:42.995Z,2.67
2022-11-30T19:47:13.506Z,2.13
2022-11-30T19:49:47.083Z,3.30
2022-11-30T19:52:16.571Z,2.77
2022-11-30T19:54:45.356Z,2.33
2022-11-30T19:57:13.415Z,2.50
2022-11-30T19:59:42.474Z,1.70
2022-11-30T20:02:12.499Z,2.27
2022-11-30T20:04:41.198Z,3.10
2022-11-30T20:07:08.981Z,2.10
2022-11-30T20:09:36.760Z,2.20
2022-11-30T20:12:05.348Z,2.53
2022-11-30T20:14:42.791Z,2.30
2022-11-30T20:17:13.025Z,3.03
2022-11-30T20:19:47.267Z,2.30
2022-11-30T20:22:18.452Z,2.70
2022-11-30T20:24:51.233Z,2.23
2022-11-30T20:27:24.011Z,2.10
2022-11-30T20:29:56.626Z,2.33
2022-11-30T20:32:24.650Z,2.33
2022-11-30T20:34:55.641Z,2.23
2022-11-30T20:37:23.513Z,2.93
2022-11-30T20:39:52.062Z,3.93
2022-11-30T20:42:21.973Z,2.67
2022-11-30T20:44:50.991Z,2.10
2022-11-30T20:47:18.744Z,2.00
2022-11-30T20:49:46.971Z,1.83
2022-11-30T20:52:15.071Z,2.53
2022-11-30T20:54:44.481Z,1.77
2022-11-30T20:57:13.843Z,1.63
2022-11-30T20:59:43.217Z,2.33
2022-11-30T21:02:11.613Z,2.93
2022-11-30T21:04:39.233Z,21.30
2022-11-30T21:07:06.990Z,129.10
2022-11-30T21:09:34.492Z,129.53
2022-11-30T21:12:01.988Z,33.70
2022-11-30T21:14:29.671Z,24.93
2022-11-30T21:16:57.175Z,5.67
2022-11-30T21:19:24.881Z,3.37
2022-11-30T21:21:52.423Z,3.53
2022-11-30T21:24:19.962Z,3.70
2022-11-30T21:26:47.536Z,2.33
2022-11-30T21:29:19.173Z,2.70
2022-11-30T21:31:47.181Z,2.00
2022-11-30T21:34:15.168Z,2.63
2022-11-30T21:36:42.904Z,1.90
2022-11-30T21:39:14.087Z,2.07
2022-11-30T21:41:42.419Z,4.20
2022-11-30T21:44:14.971Z,1.70
2022-11-30T21:46:45.705Z,2.13
2022-11-30T21:49:15.474Z,1.60
2022-11-30T21:51:44.053Z,2.10
2022-11-30T21:54:13.653Z,2.10
2022-11-30T21:56:43.814Z,1.73
2022-11-30T21:59:14.690Z,2.47
2022-11-30T22:01:44.368Z,2.23
2022-11-30T22:04:14.344Z,2.03
2022-11-30T22:06:43.796Z,2.60
2022-11-30T22:09:15.667Z,3.57
2022-11-30T22:11:45.923Z,3.00
2022-11-30T22:14:16.665Z,4.50
2022-11-30T22:16:44.951Z,7.07
2022-11-30T22:19:12.509Z,3.83
2022-11-30T22:21:42.955Z,2.20
2022-11-30T22:24:14.146Z,2.70
2022-11-30T22:26:46.237Z,2.73
2022-11-30T22:29:18.988Z,2.67
2022-11-30T22:31:49.447Z,2.20
2022-11-30T22:34:17.287Z,2.43
2022-11-30T22:36:46.681Z,2.03
2022-11-30T22:39:18.980Z,2.43
2022-11-30T22:41:54.689Z,2.13
2022-11-30T22:44:23.382Z,2.07
2022-11-30T22:46:51.011Z,2.07
2022-11-30T22:49:21.594Z,1.73
2022-11-30T22:51:50.570Z,1.90
2022-11-30T22:54:18.673Z,3.10
2022-11-30T22:56:47.174Z,2.07
2022-11-30T22:59:16.024Z,1.97
2022-11-30T23:01:46.932Z,2.10
2022-11-30T23:04:20.803Z,1.80
2022-11-30T23:06:50.115Z,1.73
2022-11-30T23:09:23.069Z,1.93
2022-11-30T23:11:52.184Z,1.97
2022-11-30T23:14:19.848Z,1.90
2022-11-30T23:16:47.666Z,1.53
2022-11-30T23:19:15.812Z,2.17
2022-11-30T23:21:45.516Z,1.77
2022-11-30T23:24:20.809Z,2.00
2022-11-30T23:26:49.780Z,2.17
2022-11-30T23:29:18.616Z,1.80
2022-11-30T23:31:47.292Z,1.57
2022-11-30T23:34:19.383Z,1.70
2022-11-30T23:36:47.612Z,1.40
2022-11-30T23:39:18.202Z,1.60
2022-11-30T23:41:46.104Z,1.80
2022-11-30T23:44:13.806Z,1.50
2022-11-30T23:46:42.812Z,1.57
2022-11-30T23:49:14.134Z,2.57
2022-11-30T23:51:42.536Z,1.33
2022-11-30T23:54:10.052Z,1.37
2022-11-30T23:56:37.502Z,1.10
2022-11-30T23:59:06.039Z,1.40
